createdAt,value
2019-02-10T00:02:00.746Z,79.87
2019-02-10T00:04:30.531Z,79.97
2019-02-10T00:07:00.336Z,79.86
2019-02-10T00:09:30.983Z,80.29
2019-02-10T00:12:00.779Z,80.18
2019-02-10T00:14:30.562Z,80.89
2019-02-10T00:17:00.417Z,82.22
2019-02-10T00:19:30.181Z,82.22
2019-02-10T00:22:00.120Z,82.90
2019-02-10T00:24:30.616Z,82.22
2019-02-10T00:27:00.354Z,81.56
2019-02-10T00:29:30.202Z,81.54
2019-02-10T00:31:59.963Z,81.54
2019-02-10T00:34:29.783Z,81.32
2019-02-10T00:36:59.630Z,81.31
2019-02-10T00:39:29.393Z,81.50
2019-02-10T00:41:59.305Z,80.86
2019-02-10T00:44:29.083Z,81.14
2019-02-10T00:46:59.086Z,83.04
2019-02-10T00:49:28.836Z,81.87
2019-02-10T00:52:00.656Z,80.49
2019-02-10T00:54:30.504Z,80.41
2019-02-10T00:57:00.362Z,80.46
2019-02-10T00:59:30.179Z,80.58
2019-02-10T01:02:00.361Z,79.83
2019-02-10T01:04:30.186Z,79.95
2019-02-10T01:07:00.002Z,80.53
2019-02-10T01:09:29.758Z,80.53
2019-02-10T01:11:59.529Z,80.61
2019-02-10T01:14:29.310Z,80.33
2019-02-10T01:16:59.148Z,80.17
2019-02-10T01:19:28.871Z,80.47
2019-02-10T01:21:58.696Z,80.50
2019-02-10T01:24:28.464Z,80.18
2019-02-10T01:27:00.032Z,80.44
2019-02-10T01:29:29.839Z,80.57
2019-02-10T01:31:59.597Z,80.78
2019-02-10T01:34:29.582Z,80.54
2019-02-10T01:36:59.851Z,80.63
2019-02-10T01:39:29.611Z,80.35
2019-02-10T01:41:59.353Z,80.27
2019-02-10T01:44:29.112Z,80.45
2019-02-10T01:46:59.161Z,80.85
2019-02-10T01:49:28.903Z,81.24
2019-02-10T01:51:58.702Z,81.58
2019-02-10T01:54:28.493Z,81.59
2019-02-10T01:56:58.347Z,81.31
2019-02-10T01:59:28.119Z,81.14
2019-02-10T02:01:57.917Z,80.88
2019-02-10T02:04:27.722Z,80.55
2019-02-10T02:06:58.175Z,80.61
2019-02-10T02:09:28.069Z,80.60
2019-02-10T02:11:57.945Z,80.74
2019-02-10T02:14:27.753Z,80.81
2019-02-10T02:16:57.553Z,80.78
2019-02-10T02:19:28.284Z,81.26
2019-02-10T02:21:57.992Z,81.74
2019-02-10T02:24:27.925Z,81.74
2019-02-10T02:26:57.676Z,81.88
2019-02-10T02:29:27.810Z,81.64
2019-02-10T02:31:57.876Z,81.64
2019-02-10T02:34:27.762Z,81.30
2019-02-10T02:36:57.443Z,81.24
2019-02-10T02:39:27.199Z,81.24
2019-02-10T02:41:56.999Z,81.24
2019-02-10T02:44:27.571Z,80.73
2019-02-10T02:46:57.446Z,80.73
2019-02-10T02:49:27.171Z,81.20
2019-02-10T02:51:56.932Z,81.35
2019-02-10T02:54:26.717Z,81.33
2019-02-10T02:56:56.435Z,81.38
2019-02-10T02:59:26.231Z,81.58
2019-02-10T03:01:56.373Z,81.76
2019-02-10T03:04:26.178Z,81.46
2019-02-10T03:06:55.991Z,81.60
2019-02-10T03:09:25.798Z,81.59
2019-02-10T03:11:55.659Z,81.59
2019-02-10T03:14:25.630Z,81.98
2019-02-10T03:16:55.534Z,81.71
2019-02-10T03:19:25.399Z,81.56
2019-02-10T03:21:55.230Z,81.27
2019-02-10T03:24:25.018Z,81.27
2019-02-10T03:26:54.801Z,81.55
2019-02-10T03:29:24.801Z,81.59
2019-02-10T03:31:54.797Z,81.75
2019-02-10T03:34:24.588Z,81.79
2019-02-10T03:36:54.318Z,81.79
2019-02-10T03:39:24.228Z,82.09
2019-02-10T03:41:54.020Z,82.07
2019-02-10T03:44:23.798Z,82.03
2019-02-10T03:46:53.538Z,81.61
2019-02-10T03:49:23.313Z,81.50
2019-02-10T03:51:53.063Z,81.38
2019-02-10T03:54:23.014Z,81.75
2019-02-10T03:56:52.821Z,81.98
2019-02-10T03:59:22.591Z,82.52
2019-02-10T04:01:52.388Z,82.52
2019-02-10T04:04:22.166Z,82.65
2019-02-10T04:06:52.470Z,82.65
2019-02-10T04:09:22.255Z,82.39
2019-02-10T04:11:52.064Z,82.68
2019-02-10T04:14:21.827Z,82.68
2019-02-10T04:16:51.892Z,82.59
2019-02-10T04:19:21.732Z,82.25
2019-02-10T04:21:51.492Z,82.26
2019-02-10T04:24:21.345Z,82.26
2019-02-10T04:26:51.104Z,82.68
2019-02-10T04:29:21.258Z,82.20
2019-02-10T04:31:51.043Z,82.20
2019-02-10T04:34:20.806Z,82.99
2019-02-10T04:36:50.615Z,83.41
2019-02-10T04:39:21.355Z,83.34
2019-02-10T04:41:51.123Z,83.34
2019-02-10T04:44:20.945Z,83.96
2019-02-10T04:46:51.220Z,83.26
2019-02-10T04:49:20.974Z,83.26
2019-02-10T04:51:50.693Z,84.71
2019-02-10T04:54:20.473Z,84.80
2019-02-10T04:56:50.443Z,84.20
2019-02-10T04:59:20.176Z,83.82
2019-02-10T05:01:50.538Z,83.82
2019-02-10T05:04:20.362Z,83.41
2019-02-10T05:06:50.116Z,84.05
2019-02-10T05:09:19.855Z,84.71
2019-02-10T05:11:49.614Z,85.29
2019-02-10T05:14:19.390Z,85.29
2019-02-10T05:16:49.433Z,84.78
2019-02-10T05:19:19.199Z,84.63
2019-02-10T05:21:49.043Z,84.78
2019-02-10T05:24:18.841Z,84.78
2019-02-10T05:26:48.794Z,84.98
2019-02-10T05:29:18.569Z,85.17
2019-02-10T05:31:48.290Z,85.37
2019-02-10T05:34:18.192Z,85.49
2019-02-10T05:36:47.960Z,85.35
2019-02-10T05:39:18.478Z,84.48
2019-02-10T05:41:48.241Z,84.48
2019-02-10T05:44:17.997Z,84.20
2019-02-10T05:46:47.788Z,83.79
2019-02-10T05:49:17.647Z,83.54
2019-02-10T05:51:47.363Z,83.54
2019-02-10T05:54:17.155Z,83.61
2019-02-10T05:56:47.643Z,83.58
2019-02-10T05:59:17.450Z,83.68
2019-02-10T06:02:08.426Z,83.42
2019-02-10T06:04:41.113Z,83.48
2019-02-10T06:07:16.582Z,83.82
2019-02-10T06:09:46.601Z,83.80
2019-02-10T06:12:16.414Z,83.71
2019-02-10T06:14:46.194Z,83.71
2019-02-10T06:17:16.113Z,83.89
2019-02-10T06:19:45.934Z,84.48
2019-02-10T06:22:16.601Z,76.72
2019-02-10T06:24:46.375Z,71.68
2019-02-10T06:27:16.129Z,70.51
2019-02-10T06:29:45.938Z,68.99
2019-02-10T06:32:15.998Z,67.66
2019-02-10T06:34:45.832Z,67.09
2019-02-10T06:37:16.319Z,66.98
2019-02-10T06:39:46.085Z,69.95
2019-02-10T06:42:15.874Z,72.99
2019-02-10T06:44:45.578Z,74.65
2019-02-10T06:47:15.397Z,75.85
2019-02-10T06:49:46.654Z,76.89
2019-02-10T06:52:17.223Z,78.55
2019-02-10T06:54:55.962Z,78.60
2019-02-10T06:57:25.827Z,78.60
2019-02-10T06:59:57.140Z,79.30
2019-02-10T07:02:31.681Z,78.78
2019-02-10T07:05:01.677Z,79.78
2019-02-10T07:07:31.463Z,79.82
2019-02-10T07:10:01.387Z,80.30
2019-02-10T07:12:50.590Z,80.79
2019-02-10T07:15:56.640Z,80.75
2019-02-10T07:19:02.651Z,80.82
2019-02-10T07:21:34.222Z,80.72
2019-02-10T07:24:23.740Z,80.42
2019-02-10T07:26:54.742Z,80.03
2019-02-10T07:29:30.603Z,79.58
2019-02-10T07:32:00.666Z,79.10
2019-02-10T07:34:51.785Z,78.85
2019-02-10T07:37:42.689Z,78.49
2019-02-10T07:40:31.825Z,78.42
2019-02-10T07:43:27.418Z,78.82
2019-02-10T07:46:16.271Z,78.49
2019-02-10T07:48:58.338Z,78.33
2019-02-10T07:51:33.678Z,77.71
2019-02-10T07:54:17.045Z,78.26
2019-02-10T07:57:09.633Z,76.84
2019-02-10T07:59:45.640Z,76.40
2019-02-10T08:02:18.512Z,75.64
2019-02-10T08:04:51.294Z,75.77
2019-02-10T08:07:44.594Z,75.30
2019-02-10T08:10:35.636Z,75.24
2019-02-10T08:13:28.378Z,75.18
2019-02-10T08:16:01.137Z,74.91
2019-02-10T08:18:59.147Z,75.31
2019-02-10T08:21:38.693Z,74.71
2019-02-10T08:24:23.385Z,73.69
2019-02-10T08:26:56.559Z,74.04
2019-02-10T08:29:38.167Z,74.02
2019-02-10T08:32:16.898Z,73.48
2019-02-10T08:34:58.532Z,72.79
2019-02-10T08:37:37.258Z,72.50
2019-02-10T08:40:22.283Z,71.61
2019-02-10T08:42:57.911Z,72.55
2019-02-10T08:45:33.444Z,73.12
2019-02-10T08:48:28.177Z,74.26
2019-02-10T08:51:19.130Z,73.82
2019-02-10T08:53:48.938Z,73.29
2019-02-10T08:56:18.734Z,73.26
2019-02-10T08:58:48.489Z,73.10
2019-02-10T09:01:18.257Z,74.16
2019-02-10T09:03:47.929Z,75.60
2019-02-10T09:06:17.834Z,73.76
2019-02-10T09:08:47.666Z,73.79
2019-02-10T09:11:17.495Z,73.27
2019-02-10T09:13:47.437Z,72.52
2019-02-10T09:16:18.126Z,71.77
2019-02-10T09:18:47.943Z,70.60
2019-02-10T09:21:17.971Z,70.70
2019-02-10T09:23:47.730Z,70.92
2019-02-10T09:26:18.380Z,70.62
2019-02-10T09:28:48.174Z,70.19
2019-02-10T09:31:17.977Z,69.80
2019-02-10T09:33:48.933Z,69.58
2019-02-10T09:36:18.762Z,69.61
2019-02-10T09:38:48.579Z,70.88
2019-02-10T09:41:18.413Z,69.63
2019-02-10T09:43:48.187Z,68.95
2019-02-10T09:46:21.707Z,68.57
2019-02-10T09:48:51.503Z,68.25
2019-02-10T09:51:21.314Z,67.52
2019-02-10T09:53:51.115Z,66.87
2019-02-10T09:56:20.906Z,66.30
2019-02-10T09:58:50.765Z,65.60
2019-02-10T10:01:20.556Z,65.10
2019-02-10T10:03:50.345Z,64.90
2019-02-10T10:06:20.169Z,63.83
2019-02-10T10:08:50.009Z,63.69
2019-02-10T10:11:19.799Z,63.64
2019-02-10T10:13:49.733Z,63.76
2019-02-10T10:16:19.556Z,64.04
2019-02-10T10:18:49.354Z,64.90
2019-02-10T10:21:19.211Z,65.73
2019-02-10T10:23:49.054Z,66.63
2019-02-10T10:26:18.839Z,67.02
2019-02-10T10:28:48.654Z,67.20
2019-02-10T10:31:18.451Z,66.94
2019-02-10T10:33:48.256Z,66.70
2019-02-10T10:36:18.056Z,66.64
2019-02-10T10:38:47.863Z,66.33
2019-02-10T10:41:17.704Z,66.68
2019-02-10T10:43:47.778Z,66.51
2019-02-10T10:46:17.593Z,65.83
2019-02-10T10:48:47.427Z,67.07
2019-02-10T10:51:17.286Z,66.52
2019-02-10T10:53:47.138Z,65.89
2019-02-10T10:56:16.941Z,65.46
2019-02-10T10:58:46.877Z,64.12
2019-02-10T11:01:16.688Z,64.00
2019-02-10T11:03:46.548Z,63.77
2019-02-10T11:06:16.369Z,63.81
2019-02-10T11:08:46.183Z,62.49
2019-02-10T11:11:16.011Z,62.77
2019-02-10T11:13:45.848Z,62.59
2019-02-10T11:16:15.636Z,61.79
2019-02-10T11:18:45.457Z,61.17
2019-02-10T11:21:15.335Z,61.64
2019-02-10T11:23:45.150Z,61.42
2019-02-10T11:26:14.915Z,60.84
2019-02-10T11:28:44.735Z,60.78
2019-02-10T11:31:14.571Z,60.81
2019-02-10T11:33:44.364Z,59.96
2019-02-10T11:36:14.214Z,59.84
2019-02-10T11:38:44.045Z,59.89
2019-02-10T11:41:13.993Z,59.94
2019-02-10T11:43:43.891Z,59.40
2019-02-10T11:46:13.715Z,59.75
2019-02-10T11:48:43.580Z,59.68
2019-02-10T11:51:13.409Z,60.57
2019-02-10T11:53:43.237Z,60.75
2019-02-10T11:56:13.214Z,60.73
2019-02-10T11:58:43.061Z,60.86
2019-02-10T12:01:12.894Z,60.80
2019-02-10T12:03:42.777Z,60.01
2019-02-10T12:06:12.598Z,59.71
2019-02-10T12:08:42.437Z,59.98
2019-02-10T12:11:12.275Z,60.10
2019-02-10T12:13:42.176Z,59.96
2019-02-10T12:16:12.056Z,58.90
2019-02-10T12:18:42.076Z,58.65
2019-02-10T12:21:11.904Z,58.02
2019-02-10T12:23:41.721Z,58.18
2019-02-10T12:26:11.621Z,58.35
2019-02-10T12:28:41.461Z,58.14
2019-02-10T12:31:11.302Z,57.16
2019-02-10T12:33:41.194Z,56.89
2019-02-10T12:36:11.039Z,56.35
2019-02-10T12:38:40.884Z,56.04
2019-02-10T12:41:10.737Z,56.46
2019-02-10T12:43:40.601Z,57.25
2019-02-10T12:46:10.441Z,57.19
2019-02-10T12:48:40.299Z,56.69
2019-02-10T12:51:10.146Z,56.92
2019-02-10T12:53:40.081Z,57.34
2019-02-10T12:56:09.883Z,57.46
2019-02-10T12:58:39.712Z,57.70
2019-02-10T13:01:09.563Z,57.55
2019-02-10T13:03:39.421Z,57.47
2019-02-10T13:06:09.286Z,57.45
2019-02-10T13:08:40.003Z,57.47
2019-02-10T13:11:09.820Z,57.47
2019-02-10T13:13:39.694Z,57.61
2019-02-10T13:16:10.455Z,56.95
2019-02-10T13:18:40.282Z,56.47
2019-02-10T13:21:10.099Z,56.11
2019-02-10T13:23:40.019Z,56.68
2019-02-10T13:26:09.817Z,56.33
2019-02-10T13:28:39.724Z,57.21
2019-02-10T13:31:09.517Z,57.57
2019-02-10T13:33:39.365Z,58.03
2019-02-10T13:36:09.265Z,58.50
2019-02-10T13:38:39.144Z,58.73
2019-02-10T13:41:08.996Z,59.09
2019-02-10T13:43:38.801Z,59.18
2019-02-10T13:46:08.723Z,59.62
2019-02-10T13:48:38.554Z,59.91
2019-02-10T13:51:08.558Z,59.96
2019-02-10T13:53:38.399Z,60.01
2019-02-10T13:56:08.225Z,60.25
2019-02-10T13:58:38.097Z,61.09
2019-02-10T14:01:08.049Z,61.07
2019-02-10T14:03:39.120Z,61.63
2019-02-10T14:06:08.971Z,62.05
2019-02-10T14:08:39.154Z,62.07
2019-02-10T14:11:09.714Z,62.19
2019-02-10T14:13:39.641Z,62.27
2019-02-10T14:16:09.885Z,63.24
2019-02-10T14:18:39.900Z,63.05
2019-02-10T14:21:09.818Z,66.75
2019-02-10T14:23:39.483Z,64.96
2019-02-10T14:26:10.055Z,60.44
2019-02-10T14:28:41.011Z,61.20
2019-02-10T14:31:12.470Z,61.76
2019-02-10T14:33:43.171Z,61.58
2019-02-10T14:36:13.839Z,61.19
2019-02-10T14:38:45.057Z,61.09
2019-02-10T14:41:19.784Z,60.47
2019-02-10T14:43:49.555Z,59.85
2019-02-10T14:46:19.236Z,59.81
2019-02-10T14:48:49.815Z,59.95
2019-02-10T14:51:20.582Z,59.68
2019-02-10T14:53:50.392Z,60.48
2019-02-10T14:56:21.023Z,60.96
2019-02-10T14:58:50.653Z,60.69
2019-02-10T15:01:21.321Z,60.41
2019-02-10T15:03:51.168Z,60.49
2019-02-10T15:06:20.997Z,60.83
2019-02-10T15:08:50.836Z,60.78
2019-02-10T15:11:20.641Z,61.84
2019-02-10T15:13:50.509Z,61.50
2019-02-10T15:16:22.058Z,61.90
2019-02-10T15:18:51.856Z,62.27
2019-02-10T15:21:21.746Z,62.52
2019-02-10T15:23:51.622Z,62.89
2019-02-10T15:26:21.363Z,63.16
2019-02-10T15:28:51.171Z,63.49
2019-02-10T15:31:21.012Z,63.81
2019-02-10T15:33:50.917Z,64.00
2019-02-10T15:36:20.755Z,64.31
2019-02-10T15:38:50.630Z,64.48
2019-02-10T15:41:20.565Z,64.68
2019-02-10T15:43:50.367Z,65.09
2019-02-10T15:46:20.281Z,65.61
2019-02-10T15:48:50.085Z,65.87
2019-02-10T15:51:28.568Z,66.12
2019-02-10T15:53:51.356Z,66.28
2019-02-10T15:56:21.149Z,66.38
2019-02-10T15:58:50.989Z,66.61
2019-02-10T16:01:21.793Z,66.96
2019-02-10T16:03:51.613Z,67.12
2019-02-10T16:06:21.603Z,67.44
2019-02-10T16:08:52.710Z,67.60
2019-02-10T16:11:22.716Z,67.80
2019-02-10T16:13:52.534Z,67.97
2019-02-10T16:16:22.438Z,68.33
2019-02-10T16:18:52.201Z,68.90
2019-02-10T16:21:21.984Z,69.07
2019-02-10T16:23:51.997Z,69.39
2019-02-10T16:26:21.801Z,69.33
2019-02-10T16:28:51.619Z,69.64
2019-02-10T16:31:21.412Z,69.90
2019-02-10T16:33:51.219Z,70.30
2019-02-10T16:36:21.020Z,70.49
2019-02-10T16:38:50.843Z,71.11
2019-02-10T16:41:22.101Z,71.24
2019-02-10T16:43:51.937Z,71.17
2019-02-10T16:46:22.782Z,72.04
2019-02-10T16:48:52.615Z,72.53
2019-02-10T16:51:22.495Z,71.89
2019-02-10T16:53:52.266Z,71.64
2019-02-10T16:56:22.425Z,71.99
2019-02-10T16:58:52.324Z,72.06
2019-02-10T17:01:22.083Z,72.18
2019-02-10T17:03:51.855Z,72.30
2019-02-10T17:06:21.811Z,72.36
2019-02-10T17:08:51.719Z,72.39
2019-02-10T17:11:22.813Z,72.71
2019-02-10T17:13:52.710Z,72.87
2019-02-10T17:16:22.454Z,72.91
2019-02-10T17:18:52.313Z,73.22
2019-02-10T17:21:23.719Z,73.55
2019-02-10T17:23:53.543Z,72.49
2019-02-10T17:26:23.460Z,72.00
2019-02-10T17:28:53.247Z,72.18
2019-02-10T17:31:23.112Z,72.39
2019-02-10T17:33:52.911Z,72.73
2019-02-10T17:36:22.823Z,72.53
2019-02-10T17:38:52.637Z,72.42
2019-02-10T17:41:25.136Z,74.96
2019-02-10T17:43:54.949Z,75.19
2019-02-10T17:46:24.742Z,72.33
2019-02-10T17:48:55.343Z,72.33
2019-02-10T17:51:25.150Z,71.74
2019-02-10T17:53:54.830Z,71.84
2019-02-10T17:56:24.879Z,72.17
2019-02-10T17:58:54.769Z,72.42
2019-02-10T18:01:24.573Z,72.86
2019-02-10T18:03:54.415Z,73.33
2019-02-10T18:06:25.374Z,73.64
2019-02-10T18:08:55.259Z,73.74
2019-02-10T18:11:30.937Z,73.79
2019-02-10T18:13:56.522Z,73.81
2019-02-10T18:16:27.873Z,73.57
2019-02-10T18:18:59.242Z,74.03
2019-02-10T18:21:46.136Z,74.45
2019-02-10T18:24:37.825Z,74.72
2019-02-10T18:27:36.066Z,74.79
2019-02-10T18:30:19.150Z,74.98
2019-02-10T18:32:59.277Z,74.72
2019-02-10T18:35:34.261Z,74.60
2019-02-10T18:38:24.108Z,74.75
2019-02-10T18:41:04.616Z,74.63
2019-02-10T18:43:39.715Z,74.37
2019-02-10T18:46:14.910Z,74.17
2019-02-10T18:48:49.170Z,73.73
2019-02-10T18:51:20.602Z,73.30
2019-02-10T18:53:54.699Z,73.66
2019-02-10T18:56:26.103Z,73.57
2019-02-10T18:59:00.501Z,73.43
2019-02-10T19:01:31.935Z,73.12
2019-02-10T19:04:19.287Z,73.09
2019-02-10T19:06:59.537Z,73.29
2019-02-10T19:09:47.049Z,73.56
2019-02-10T19:12:19.420Z,73.57
2019-02-10T19:14:50.856Z,73.55
2019-02-10T19:17:23.822Z,73.56
2019-02-10T19:20:07.104Z,73.52
2019-02-10T19:22:39.060Z,73.38
2019-02-10T19:25:10.709Z,73.42
2019-02-10T19:27:52.284Z,73.71
2019-02-10T19:30:40.256Z,73.85
2019-02-10T19:33:12.879Z,74.05
2019-02-10T19:35:44.336Z,73.72
2019-02-10T19:38:16.878Z,73.15
2019-02-10T19:40:54.716Z,72.73
2019-02-10T19:43:27.067Z,72.24
2019-02-10T19:45:58.339Z,72.16
2019-02-10T19:48:43.966Z,72.15
2019-02-10T19:51:21.428Z,72.09
2019-02-10T19:53:55.649Z,72.60
2019-02-10T19:56:28.312Z,72.92
2019-02-10T19:59:06.793Z,72.92
2019-02-10T20:01:40.974Z,71.99
2019-02-10T20:04:13.537Z,72.39
2019-02-10T20:06:45.004Z,75.31
2019-02-10T20:09:19.252Z,72.85
2019-02-10T20:12:03.969Z,72.93
2019-02-10T20:14:32.668Z,73.02
2019-02-10T20:17:06.753Z,72.99
2019-02-10T20:19:38.080Z,72.91
2019-02-10T20:22:15.751Z,73.12
2019-02-10T20:24:53.380Z,73.30
2019-02-10T20:27:36.953Z,72.70
2019-02-10T20:30:20.420Z,72.76
2019-02-10T20:32:51.734Z,72.86
2019-02-10T20:35:35.254Z,73.39
2019-02-10T20:38:09.551Z,73.90
2019-02-10T20:40:47.270Z,74.17
2019-02-10T20:43:18.637Z,73.97
2019-02-10T20:45:56.057Z,73.88
2019-02-10T20:48:36.387Z,73.38
2019-02-10T20:51:16.656Z,73.13
2019-02-10T20:54:03.065Z,73.19
2019-02-10T20:56:40.377Z,73.30
2019-02-10T20:59:23.915Z,73.35
2019-02-10T21:02:05.464Z,73.50
2019-02-10T21:04:39.899Z,73.59
2019-02-10T21:07:11.250Z,73.61
2019-02-10T21:09:45.376Z,73.51
2019-02-10T21:12:20.847Z,72.93
2019-02-10T21:14:58.277Z,73.17
2019-02-10T21:17:38.405Z,73.60
2019-02-10T21:20:16.127Z,74.13
2019-02-10T21:22:59.798Z,74.25
2019-02-10T21:25:31.149Z,72.98
2019-02-10T21:28:18.792Z,73.43
2019-02-10T21:31:08.296Z,73.69
2019-02-10T21:33:39.612Z,74.10
2019-02-10T21:36:16.777Z,74.46
2019-02-10T21:38:51.113Z,74.82
2019-02-10T21:41:22.425Z,74.67
2019-02-10T21:43:56.583Z,74.52
2019-02-10T21:46:45.925Z,74.42
2019-02-10T21:49:15.672Z,74.56
2019-02-10T21:51:45.502Z,74.57
2019-02-10T21:54:15.311Z,74.41
2019-02-10T21:56:45.106Z,74.33
2019-02-10T21:59:14.986Z,74.25
2019-02-10T22:01:44.801Z,74.11
2019-02-10T22:04:15.794Z,73.89
2019-02-10T22:06:45.612Z,73.91
2019-02-10T22:09:15.420Z,74.11
2019-02-10T22:11:45.243Z,73.16
2019-02-10T22:14:15.096Z,72.34
2019-02-10T22:16:44.873Z,72.09
2019-02-10T22:19:14.686Z,72.46
2019-02-10T22:21:44.470Z,73.11
2019-02-10T22:24:14.982Z,73.74
2019-02-10T22:26:44.790Z,74.18
2019-02-10T22:29:14.545Z,74.53
2019-02-10T22:31:44.361Z,74.14
2019-02-10T22:34:14.168Z,74.03
2019-02-10T22:36:44.174Z,73.61
2019-02-10T22:39:14.467Z,72.87
2019-02-10T22:41:45.901Z,72.30
2019-02-10T22:44:15.704Z,72.23
2019-02-10T22:46:45.381Z,72.23
2019-02-10T22:49:15.140Z,72.44
2019-02-10T22:51:44.909Z,72.43
2019-02-10T22:54:14.667Z,72.20
2019-02-10T22:56:44.327Z,72.45
2019-02-10T22:59:14.113Z,72.59
2019-02-10T23:01:43.954Z,72.33
2019-02-10T23:04:13.702Z,72.06
2019-02-10T23:06:45.066Z,72.27
2019-02-10T23:09:16.506Z,72.83
2019-02-10T23:11:46.684Z,73.20
2019-02-10T23:14:16.484Z,74.06
2019-02-10T23:16:46.232Z,74.88
2019-02-10T23:19:16.446Z,75.09
2019-02-10T23:21:46.610Z,76.27
2019-02-10T23:24:16.723Z,77.26
2019-02-10T23:26:46.512Z,77.95
2019-02-10T23:29:16.319Z,79.63
2019-02-10T23:31:47.204Z,79.93
2019-02-10T23:34:16.906Z,79.53
2019-02-10T23:36:49.049Z,80.12
2019-02-10T23:39:19.659Z,81.33
2019-02-10T23:41:49.442Z,81.68
2019-02-10T23:44:19.210Z,80.50
2019-02-10T23:46:49.661Z,81.68
2019-02-10T23:49:19.381Z,82.53
2019-02-10T23:51:49.292Z,80.66
2019-02-10T23:54:18.892Z,80.99
2019-02-10T23:56:49.680Z,83.00
2019-02-10T23:59:19.435Z,83.06
